Time;durP1;ratioP1;P1;durP2;ratioP2;P2;SDS_P1;SDS_P2;PMS_P1;PMS_P2;Temp;Humidity;BMP_temperature;BMP_pressure;BME280_temperature;BME280_humidity;BME280_pressure;Samples;Min_cycle;Max_cycle;Signal;HPM_P1;HPM_P2
2022/03/30 00:01:17;;;;;;;16.08;6.40;;;;;;;;;;5051056;28;20249;-17
2022/03/30 00:03:45;;;;;;;17.40;6.68;;;;;;;;;;5051269;28;20233;-17
2022/03/30 00:06:12;;;;;;;17.33;6.32;;;;;;;;;;5051077;28;20230;-17
2022/03/30 00:08:42;;;;;;;17.55;5.85;;;;;;;;;;5050565;28;20233;-17
2022/03/30 00:11:09;;;;;;;12.23;6.38;;;;;;;;;;5051323;28;20226;-17
2022/03/30 00:13:37;;;;;;;13.18;6.30;;;;;;;;;;5050469;28;20232;-17
2022/03/30 00:16:04;;;;;;;11.32;5.97;;;;;;;;;;5051011;28;20234;-17
2022/03/30 00:18:32;;;;;;;12.20;6.15;;;;;;;;;;5050292;28;20240;-17
2022/03/30 00:20:59;;;;;;;11.70;5.93;;;;;;;;;;5051500;28;20238;-17
2022/03/30 00:23:26;;;;;;;11.32;5.40;;;;;;;;;;5050749;28;20240;-17
2022/03/30 00:25:55;;;;;;;13.25;6.57;;;;;;;;;;5050834;28;20222;-17
2022/03/30 00:28:23;;;;;;;15.18;6.05;;;;;;;;;;5050803;28;20238;-17
2022/03/30 00:30:51;;;;;;;8.65;5.75;;;;;;;;;;5050209;28;20320;-17
2022/03/30 00:33:18;;;;;;;16.85;6.40;;;;;;;;;;5051040;28;20222;-17
2022/03/30 00:35:46;;;;;;;10.20;5.78;;;;;;;;;;5050858;28;20245;-17
2022/03/30 00:38:13;;;;;;;10.93;6.00;;;;;;;;;;5046498;28;20225;-17
2022/03/30 00:40:41;;;;;;;11.77;6.03;;;;;;;;;;5046895;28;20238;-17
2022/03/30 00:43:09;;;;;;;10.35;5.68;;;;;;;;;;5050544;28;20218;-17
2022/03/30 00:45:37;;;;;;;12.00;6.03;;;;;;;;;;5050517;28;20226;-17
2022/03/30 00:48:05;;;;;;;12.48;5.75;;;;;;;;;;5050689;28;20404;-17
2022/03/30 00:50:32;;;;;;;10.73;6.15;;;;;;;;;;5050478;28;20234;-16
2022/03/30 00:52:59;;;;;;;12.68;6.15;;;;;;;;;;5049806;28;20249;-17
2022/03/30 00:55:27;;;;;;;9.27;5.65;;;;;;;;;;5050402;28;20242;-16
2022/03/30 00:57:54;;;;;;;9.38;5.38;;;;;;;;;;5050630;28;20705;-17
2022/03/30 01:00:23;;;;;;;13.00;5.55;;;;;;;;;;5050325;28;20232;-17
2022/03/30 01:02:50;;;;;;;12.93;6.07;;;;;;;;;;5049598;28;20265;-17
2022/03/30 01:05:18;;;;;;;9.35;5.32;;;;;;;;;;5051159;28;20325;-17
2022/03/30 01:07:46;;;;;;;9.15;5.75;;;;;;;;;;5050489;28;20240;-17
2022/03/30 01:10:13;;;;;;;11.30;6.30;;;;;;;;;;5048303;28;20986;-17
2022/03/30 01:12:41;;;;;;;9.43;5.18;;;;;;;;;;5051610;28;20236;-17
2022/03/30 01:15:09;;;;;;;8.55;5.85;;;;;;;;;;5052013;28;20697;-17
2022/03/30 01:17:38;;;;;;;12.70;6.43;;;;;;;;;;5052706;28;20909;-17
2022/03/30 01:20:06;;;;;;;8.95;5.68;;;;;;;;;;5053169;28;20241;-17
2022/03/30 01:22:34;;;;;;;9.40;5.80;;;;;;;;;;5053584;28;20245;-16
2022/03/30 01:25:02;;;;;;;10.35;5.57;;;;;;;;;;5053339;28;20268;-17
2022/03/30 01:27:29;;;;;;;10.52;5.60;;;;;;;;;;5053402;28;20222;-17
2022/03/30 01:32:41;;;;;;;10.10;6.22;;;;;;;;;;5053695;28;20234;-16
2022/03/30 01:35:10;;;;;;;10.32;5.40;;;;;;;;;;5053731;28;21047;-17
2022/03/30 01:37:39;;;;;;;10.85;6.22;;;;;;;;;;5053710;28;21051;-17
2022/03/30 01:40:06;;;;;;;12.57;6.15;;;;;;;;;;5053479;28;20227;-17
2022/03/30 01:42:34;;;;;;;10.80;6.25;;;;;;;;;;5053085;28;21053;-17
2022/03/30 01:45:01;;;;;;;13.70;5.72;;;;;;;;;;5053247;28;20238;-17
2022/03/30 01:47:29;;;;;;;9.60;6.22;;;;;;;;;;5053201;28;20230;-17
2022/03/30 01:49:56;;;;;;;8.50;5.53;;;;;;;;;;5053307;28;20230;-17
2022/03/30 01:52:24;;;;;;;10.95;6.40;;;;;;;;;;5051696;28;20222;-16
2022/03/30 01:54:53;;;;;;;11.00;6.05;;;;;;;;;;5053072;28;20244;-17
2022/03/30 01:57:20;;;;;;;11.52;6.38;;;;;;;;;;5053382;28;20273;-17
2022/03/30 01:59:48;;;;;;;10.15;5.90;;;;;;;;;;5053159;28;20236;-17
2022/03/30 02:02:15;;;;;;;13.40;6.38;;;;;;;;;;5050826;28;20270;-16
2022/03/30 02:04:43;;;;;;;10.70;6.13;;;;;;;;;;5050404;28;20229;-17
2022/03/30 02:07:10;;;;;;;10.52;6.18;;;;;;;;;;5052644;28;20226;-17
2022/03/30 02:09:37;;;;;;;15.10;6.55;;;;;;;;;;5053267;28;20230;-17
2022/03/30 02:12:07;;;;;;;11.75;6.18;;;;;;;;;;5052883;28;21046;-17
2022/03/30 02:14:34;;;;;;;12.73;6.97;;;;;;;;;;5052314;28;20238;-17
2022/03/30 02:17:02;;;;;;;8.57;6.20;;;;;;;;;;5052028;28;20720;-17
2022/03/30 02:19:29;;;;;;;13.20;7.40;;;;;;;;;;5052788;28;20232;-16
2022/03/30 02:21:57;;;;;;;13.10;6.15;;;;;;;;;;5055971;28;20245;-17
2022/03/30 02:24:24;;;;;;;12.50;6.80;;;;;;;;;;5051572;28;20233;-16
2022/03/30 02:26:52;;;;;;;12.68;6.63;;;;;;;;;;5052256;28;20743;-17
2022/03/30 02:29:21;;;;;;;9.57;5.78;;;;;;;;;;5045689;28;20236;-16
2022/03/30 02:31:48;;;;;;;10.20;5.97;;;;;;;;;;5052864;28;20238;-17
2022/03/30 02:34:16;;;;;;;9.57;6.38;;;;;;;;;;5052431;28;20242;-17
2022/03/30 02:36:45;;;;;;;10.13;6.32;;;;;;;;;;5047867;28;20237;-17
2022/03/30 02:39:14;;;;;;;13.52;6.68;;;;;;;;;;5048873;28;20226;-17
2022/03/30 02:41:41;;;;;;;8.45;5.93;;;;;;;;;;5051684;28;21046;-17
2022/03/30 02:44:09;;;;;;;10.32;6.28;;;;;;;;;;5052599;28;20218;-17
2022/03/30 02:46:37;;;;;;;24.00;6.47;;;;;;;;;;5051785;28;20233;-17
2022/03/30 02:49:05;;;;;;;12.07;6.32;;;;;;;;;;5052462;28;21120;-17
2022/03/30 02:51:32;;;;;;;12.40;6.15;;;;;;;;;;5052135;28;20731;-17
2022/03/30 02:53:59;;;;;;;14.48;6.22;;;;;;;;;;5052425;28;21061;-17
2022/03/30 02:56:27;;;;;;;9.75;5.80;;;;;;;;;;5051768;28;20237;-17
2022/03/30 02:58:54;;;;;;;9.95;5.90;;;;;;;;;;5051628;28;20376;-17
2022/03/30 03:01:21;;;;;;;10.70;6.00;;;;;;;;;;5051909;28;20234;-17
2022/03/30 03:03:50;;;;;;;13.40;6.75;;;;;;;;;;5052308;28;20291;-17
2022/03/30 03:06:18;;;;;;;12.75;6.65;;;;;;;;;;5051650;28;20264;-16
2022/03/30 03:08:45;;;;;;;11.38;6.32;;;;;;;;;;5051465;28;20236;-16
2022/03/30 03:11:12;;;;;;;8.73;6.10;;;;;;;;;;5047868;28;20234;-16
2022/03/30 03:13:39;;;;;;;12.48;6.05;;;;;;;;;;5052413;28;20226;-17
2022/03/30 03:16:07;;;;;;;10.00;5.65;;;;;;;;;;5052160;28;21053;-17
2022/03/30 03:18:35;;;;;;;12.77;6.22;;;;;;;;;;5051822;28;20783;-17
2022/03/30 03:21:03;;;;;;;11.77;6.07;;;;;;;;;;5051029;28;20245;-17
2022/03/30 03:23:31;;;;;;;9.30;5.88;;;;;;;;;;5050754;28;21046;-17
2022/03/30 03:25:58;;;;;;;10.68;6.13;;;;;;;;;;5052222;28;20226;-16
2022/03/30 03:28:25;;;;;;;9.73;6.55;;;;;;;;;;5051476;28;21100;-17
2022/03/30 03:30:53;;;;;;;12.13;6.35;;;;;;;;;;5050656;28;20240;-17
2022/03/30 03:33:20;;;;;;;10.10;6.07;;;;;;;;;;5051617;28;20630;-16
2022/03/30 03:35:48;;;;;;;11.02;6.38;;;;;;;;;;5050682;28;20236;-17
2022/03/30 03:38:16;;;;;;;9.45;5.85;;;;;;;;;;5052007;28;20759;-16
2022/03/30 03:40:44;;;;;;;10.48;5.75;;;;;;;;;;5047636;28;20234;-17
2022/03/30 03:43:11;;;;;;;8.75;5.63;;;;;;;;;;5050960;28;20720;-17
2022/03/30 03:45:39;;;;;;;12.55;6.30;;;;;;;;;;5051366;28;21248;-17
2022/03/30 03:48:07;;;;;;;11.07;5.90;;;;;;;;;;5051372;28;20229;-17
2022/03/30 03:50:34;;;;;;;11.60;6.15;;;;;;;;;;5051253;28;20230;-17
2022/03/30 03:53:02;;;;;;;9.27;5.78;;;;;;;;;;5051529;28;20226;-17
2022/03/30 03:55:33;;;;;;;12.00;5.97;;;;;;;;;;5050933;28;20230;-17
2022/03/30 03:58:01;;;;;;;9.43;5.97;;;;;;;;;;5051374;28;20719;-17
2022/03/30 04:00:29;;;;;;;10.77;6.10;;;;;;;;;;5051292;28;20234;-17
2022/03/30 04:02:56;;;;;;;10.45;5.90;;;;;;;;;;5050764;28;20329;-17
2022/03/30 04:05:23;;;;;;;11.00;6.38;;;;;;;;;;5046335;28;20226;-16
2022/03/30 04:07:51;;;;;;;9.48;6.13;;;;;;;;;;5051365;28;20238;-16
2022/03/30 04:10:18;;;;;;;11.20;5.90;;;;;;;;;;5051343;28;20230;-17
2022/03/30 04:12:47;;;;;;;13.38;5.95;;;;;;;;;;5051121;28;20226;-17
2022/03/30 04:15:14;;;;;;;10.45;5.85;;;;;;;;;;5046563;28;20242;-17
2022/03/30 04:17:42;;;;;;;9.88;6.10;;;;;;;;;;5047274;28;20976;-17
2022/03/30 04:20:10;;;;;;;9.23;6.03;;;;;;;;;;5050714;28;20690;-17
2022/03/30 04:22:37;;;;;;;12.13;6.28;;;;;;;;;;5050837;28;20242;-16
2022/03/30 04:25:05;;;;;;;9.15;6.00;;;;;;;;;;5050807;28;20234;-16
2022/03/30 04:27:33;;;;;;;9.70;6.45;;;;;;;;;;5050720;28;20603;-16
2022/03/30 04:30:01;;;;;;;13.80;6.35;;;;;;;;;;5050944;28;20230;-16
2022/03/30 04:32:28;;;;;;;9.73;6.00;;;;;;;;;;5050875;28;20923;-16
2022/03/30 04:34:56;;;;;;;11.38;5.85;;;;;;;;;;5050863;28;20237;-17
2022/03/30 04:37:23;;;;;;;11.60;6.18;;;;;;;;;;5050405;28;20226;-17
2022/03/30 04:39:50;;;;;;;9.80;6.00;;;;;;;;;;5050739;28;20222;-16
2022/03/30 04:42:20;;;;;;;10.55;5.90;;;;;;;;;;5050893;28;20705;-16
2022/03/30 04:44:47;;;;;;;8.23;5.97;;;;;;;;;;5050093;28;20733;-16
2022/03/30 04:47:16;;;;;;;10.23;5.90;;;;;;;;;;5053210;28;20234;-16
2022/03/30 04:49:44;;;;;;;9.65;5.90;;;;;;;;;;5050169;28;20727;-16
2022/03/30 04:52:11;;;;;;;8.98;5.40;;;;;;;;;;5054134;28;20233;-16
2022/03/30 04:54:38;;;;;;;11.07;6.68;;;;;;;;;;5054029;28;20237;-16
2022/03/30 04:57:06;;;;;;;9.52;6.22;;;;;;;;;;5053852;28;20230;-16
2022/03/30 04:59:33;;;;;;;11.45;5.70;;;;;;;;;;5049484;28;20226;-16
2022/03/30 05:02:01;;;;;;;9.77;6.10;;;;;;;;;;5054155;28;20623;-16
2022/03/30 05:04:32;;;;;;;11.43;6.50;;;;;;;;;;5054383;28;20238;-17
2022/03/30 05:06:59;;;;;;;9.00;6.00;;;;;;;;;;5054333;28;20245;-16
2022/03/30 05:09:27;;;;;;;9.32;6.07;;;;;;;;;;5052287;28;20234;-18
2022/03/30 05:11:54;;;;;;;9.95;5.90;;;;;;;;;;5054000;28;20233;-17
2022/03/30 05:14:21;;;;;;;9.13;5.90;;;;;;;;;;5053879;28;20321;-17
2022/03/30 05:16:49;;;;;;;8.13;5.00;;;;;;;;;;5053947;28;21013;-18
2022/03/30 05:19:16;;;;;;;9.77;5.85;;;;;;;;;;5053903;28;20717;-17
2022/03/30 05:21:45;;;;;;;8.98;5.65;;;;;;;;;;5052747;28;20241;-17
2022/03/30 05:24:12;;;;;;;9.40;5.65;;;;;;;;;;5051908;28;20238;-18
2022/03/30 05:26:39;;;;;;;14.95;6.18;;;;;;;;;;5068684;28;20234;-18
2022/03/30 05:29:07;;;;;;;9.35;5.43;;;;;;;;;;5064738;28;21063;-17
2022/03/30 05:31:34;;;;;;;9.32;5.20;;;;;;;;;;5063714;28;20269;-18
2022/03/30 05:34:02;;;;;;;7.25;4.93;;;;;;;;;;5065378;28;20284;-18
2022/03/30 05:36:30;;;;;;;9.63;5.00;;;;;;;;;;5067493;28;20229;-18
2022/03/30 05:38:58;;;;;;;7.78;4.90;;;;;;;;;;5066079;28;20622;-17
2022/03/30 05:41:25;;;;;;;6.30;4.30;;;;;;;;;;5066887;28;20233;-17
2022/03/30 05:43:53;;;;;;;8.52;4.78;;;;;;;;;;5064312;28;20243;-17
2022/03/30 05:46:20;;;;;;;7.85;4.90;;;;;;;;;;5065491;28;20731;-18
2022/03/30 05:48:51;;;;;;;6.70;4.65;;;;;;;;;;5061370;28;20229;-17
2022/03/30 05:51:18;;;;;;;8.63;4.95;;;;;;;;;;5063187;28;20225;-17
2022/03/30 05:53:45;;;;;;;9.15;5.22;;;;;;;;;;5058219;28;21057;-17
2022/03/30 05:56:14;;;;;;;7.32;4.63;;;;;;;;;;5055790;28;20234;-18
2022/03/30 05:58:41;;;;;;;8.27;5.03;;;;;;;;;;5054793;28;20741;-18
2022/03/30 06:01:09;;;;;;;7.50;4.35;;;;;;;;;;5057292;28;20234;-17
2022/03/30 06:03:37;;;;;;;9.07;5.05;;;;;;;;;;5064310;28;20756;-18
2022/03/30 06:06:05;;;;;;;11.32;4.70;;;;;;;;;;5061275;28;20226;-17
2022/03/30 06:08:33;;;;;;;6.85;4.60;;;;;;;;;;5053374;28;20227;-17
2022/03/30 06:11:00;;;;;;;7.18;4.50;;;;;;;;;;5052674;28;20226;-18
2022/03/30 06:13:29;;;;;;;6.35;4.40;;;;;;;;;;5052844;28;20245;-18
2022/03/30 06:15:56;;;;;;;8.57;4.32;;;;;;;;;;5051737;28;20234;-17
2022/03/30 06:18:24;;;;;;;10.15;4.70;;;;;;;;;;5052631;28;20234;-17
2022/03/30 06:20:51;;;;;;;6.70;4.38;;;;;;;;;;5052565;28;20713;-17
2022/03/30 06:23:18;;;;;;;8.02;4.28;;;;;;;;;;5051852;28;20238;-17
2022/03/30 06:25:46;;;;;;;7.13;4.03;;;;;;;;;;5052418;28;20242;-18
2022/03/30 06:28:14;;;;;;;10.52;5.13;;;;;;;;;;5045650;28;20233;-18
2022/03/30 06:30:42;;;;;;;15.55;4.35;;;;;;;;;;5052638;28;20594;-18
2022/03/30 06:33:10;;;;;;;11.82;4.90;;;;;;;;;;5053176;28;20245;-18
2022/03/30 06:35:38;;;;;;;15.18;5.57;;;;;;;;;;5052547;28;20325;-17
2022/03/30 06:38:05;;;;;;;14.52;4.47;;;;;;;;;;5051909;28;20230;-18
2022/03/30 06:40:33;;;;;;;9.02;4.60;;;;;;;;;;5058781;28;20260;-17
2022/03/30 06:43:01;;;;;;;8.43;4.50;;;;;;;;;;5062617;28;20341;-18
2022/03/30 06:45:28;;;;;;;9.45;4.50;;;;;;;;;;5063716;28;20731;-16
2022/03/30 06:47:57;;;;;;;8.70;4.53;;;;;;;;;;5061156;28;20233;-18
2022/03/30 06:50:24;;;;;;;8.38;4.30;;;;;;;;;;5060729;28;20709;-18
2022/03/30 06:52:51;;;;;;;10.30;4.45;;;;;;;;;;5057085;28;20705;-17
2022/03/30 06:55:19;;;;;;;6.55;3.95;;;;;;;;;;5051962;28;20233;-17
2022/03/30 06:57:47;;;;;;;7.50;4.63;;;;;;;;;;5055455;28;20354;-18
2022/03/30 07:00:15;;;;;;;7.70;4.53;;;;;;;;;;5047417;28;20245;-18
2022/03/30 07:02:42;;;;;;;10.20;4.50;;;;;;;;;;5048213;28;20230;-18
2022/03/30 07:05:11;;;;;;;10.02;4.80;;;;;;;;;;5052253;28;20234;-18
2022/03/30 07:10:25;;;;;;;10.20;4.78;;;;;;;;;;5053214;28;20704;-17
2022/03/30 07:12:53;;;;;;;7.13;4.55;;;;;;;;;;5063672;28;20236;-17
2022/03/30 07:15:21;;;;;;;9.18;4.55;;;;;;;;;;5064317;28;20233;-17
2022/03/30 07:17:49;;;;;;;9.10;4.63;;;;;;;;;;5052155;28;20697;-18
2022/03/30 07:20:18;;;;;;;9.10;4.70;;;;;;;;;;5051977;28;20230;-17
2022/03/30 07:22:45;;;;;;;9.00;5.18;;;;;;;;;;5047275;28;20764;-18
2022/03/30 07:25:13;;;;;;;10.30;4.65;;;;;;;;;;5047811;28;20238;-18
2022/03/30 07:27:40;;;;;;;9.80;5.32;;;;;;;;;;5052016;28;20237;-18
2022/03/30 07:30:08;;;;;;;13.02;5.20;;;;;;;;;;5051698;28;20261;-18
2022/03/30 07:32:36;;;;;;;8.45;4.43;;;;;;;;;;5055533;28;20222;-18
2022/03/30 07:35:04;;;;;;;8.05;4.57;;;;;;;;;;5063698;28;21057;-17
2022/03/30 07:37:32;;;;;;;6.97;4.47;;;;;;;;;;5056911;28;20876;-16
2022/03/30 07:40:04;;;;;;;8.75;4.45;;;;;;;;;;5061715;28;20322;-18
2022/03/30 07:42:32;;;;;;;7.40;4.15;;;;;;;;;;5064586;28;20245;-17
2022/03/30 07:44:59;;;;;;;7.40;4.60;;;;;;;;;;5063729;28;20622;-17
2022/03/30 07:47:26;;;;;;;11.57;4.75;;;;;;;;;;5055244;28;20261;-17
2022/03/30 07:49:54;;;;;;;23.58;7.13;;;;;;;;;;5050755;28;20477;-17
2022/03/30 07:52:21;;;;;;;16.27;5.55;;;;;;;;;;5058585;28;20226;-17
2022/03/30 07:54:50;;;;;;;12.30;6.22;;;;;;;;;;5050929;28;20244;-17
2022/03/30 07:57:20;;;;;;;16.55;5.88;;;;;;;;;;5047790;28;20700;-15
2022/03/30 07:59:47;;;;;;;15.55;6.40;;;;;;;;;;5053402;28;20897;-17
2022/03/30 08:02:15;;;;;;;12.10;5.63;;;;;;;;;;5058141;28;20237;-18
2022/03/30 08:04:43;;;;;;;14.65;5.30;;;;;;;;;;5052007;28;20246;-18
2022/03/30 08:07:11;;;;;;;11.98;5.53;;;;;;;;;;5056640;28;21118;-17
2022/03/30 08:09:38;;;;;;;15.43;5.32;;;;;;;;;;5052953;28;20230;-18
2022/03/30 08:12:07;;;;;;;10.00;5.20;;;;;;;;;;5050508;28;20708;-16
2022/03/30 08:14:34;;;;;;;8.68;4.47;;;;;;;;;;5050816;28;20712;-16
2022/03/30 08:17:02;;;;;;;9.00;4.88;;;;;;;;;;5054624;28;20233;-16
2022/03/30 08:19:29;;;;;;;11.68;4.95;;;;;;;;;;5056000;28;20413;-16
2022/03/30 08:24:46;;;;;;;10.10;4.25;;;;;;;;;;5058585;28;20287;-16
2022/03/30 08:27:15;;;;;;;10.30;4.20;;;;;;;;;;5056796;28;20238;-15
2022/03/30 08:29:44;;;;;;;14.52;4.43;;;;;;;;;;5057533;28;20331;-17
2022/03/30 08:32:11;;;;;;;14.52;4.38;;;;;;;;;;5051974;28;20421;-17
2022/03/30 08:34:39;;;;;;;14.77;4.90;;;;;;;;;;5050985;28;20219;-17
2022/03/30 08:37:06;;;;;;;13.57;4.53;;;;;;;;;;5050247;28;20435;-17
2022/03/30 08:39:35;;;;;;;13.25;4.43;;;;;;;;;;5053731;28;20670;-17
2022/03/30 08:42:03;;;;;;;16.35;4.45;;;;;;;;;;5050753;28;20241;-17
2022/03/30 08:44:31;;;;;;;12.80;5.25;;;;;;;;;;5050430;28;21158;-17
2022/03/30 08:46:59;;;;;;;12.45;4.57;;;;;;;;;;5050145;28;20238;-17
2022/03/30 08:49:27;;;;;;;10.60;4.30;;;;;;;;;;5050053;28;20886;-17
2022/03/30 08:51:54;;;;;;;9.38;4.50;;;;;;;;;;5049532;28;20235;-17
2022/03/30 08:54:22;;;;;;;12.38;4.40;;;;;;;;;;5050492;28;20328;-17
2022/03/30 08:56:55;;;;;;;15.90;4.57;;;;;;;;;;5050725;28;20236;-17
2022/03/30 08:59:23;;;;;;;9.00;4.32;;;;;;;;;;5050664;28;20288;-17
2022/03/30 09:01:53;;;;;;;11.27;3.90;;;;;;;;;;5044998;28;20328;-17
2022/03/30 09:04:21;;;;;;;9.65;4.07;;;;;;;;;;5050527;28;20713;-17
2022/03/30 09:06:49;;;;;;;7.43;3.88;;;;;;;;;;5049963;28;20273;-17
2022/03/30 09:09:18;;;;;;;7.47;3.92;;;;;;;;;;5050127;28;20234;-17
2022/03/30 09:11:52;;;;;;;8.65;3.97;;;;;;;;;;5049628;28;20237;-17
2022/03/30 09:14:20;;;;;;;8.15;3.80;;;;;;;;;;5047059;28;20234;-17
2022/03/30 09:16:48;;;;;;;8.52;3.88;;;;;;;;;;5052388;28;20226;-17
2022/03/30 09:19:17;;;;;;;13.02;5.60;;;;;;;;;;5050229;28;20989;-17
2022/03/30 09:21:45;;;;;;;15.55;6.60;;;;;;;;;;5050258;28;20234;-17
2022/03/30 09:24:13;;;;;;;16.80;8.85;;;;;;;;;;5047746;28;20234;-17
2022/03/30 09:26:41;;;;;;;16.45;7.13;;;;;;;;;;5050179;28;20736;-17
2022/03/30 09:29:08;;;;;;;18.48;9.02;;;;;;;;;;5050093;28;20702;-17
2022/03/30 09:31:36;;;;;;;16.48;8.35;;;;;;;;;;5049491;28;20231;-17
2022/03/30 09:34:04;;;;;;;21.55;9.68;;;;;;;;;;5051804;28;20312;-17
2022/03/30 09:36:33;;;;;;;17.83;8.85;;;;;;;;;;5052929;28;20265;-17
2022/03/30 09:39:01;;;;;;;13.45;6.65;;;;;;;;;;5053046;28;20227;-17
2022/03/30 09:41:31;;;;;;;15.13;7.82;;;;;;;;;;5052553;28;20235;-17
2022/03/30 09:44:01;;;;;;;18.90;9.07;;;;;;;;;;5053231;28;20993;-17
2022/03/30 09:46:29;;;;;;;17.77;8.15;;;;;;;;;;5050795;28;20488;-17
2022/03/30 09:48:57;;;;;;;13.98;7.80;;;;;;;;;;5053149;28;20226;-17
2022/03/30 09:51:26;;;;;;;17.90;7.05;;;;;;;;;;5052751;28;20316;-17
2022/03/30 09:53:55;;;;;;;16.92;7.15;;;;;;;;;;5052854;28;20242;-17
2022/03/30 09:56:23;;;;;;;17.33;7.10;;;;;;;;;;5052214;28;20226;-17
2022/03/30 09:58:59;;;;;;;13.00;6.40;;;;;;;;;;5052940;28;20993;-17
2022/03/30 10:01:29;;;;;;;11.00;5.88;;;;;;;;;;5052588;28;20241;-18
2022/03/30 10:03:59;;;;;;;15.02;6.97;;;;;;;;;;5052411;28;20327;-17
2022/03/30 10:06:27;;;;;;;11.85;6.05;;;;;;;;;;5049978;28;21030;-17
2022/03/30 10:09:03;;;;;;;12.25;5.60;;;;;;;;;;5051455;28;20296;-17
2022/03/30 10:11:30;;;;;;;8.82;5.00;;;;;;;;;;5056613;28;20268;-18
2022/03/30 10:13:59;;;;;;;8.77;5.45;;;;;;;;;;5057410;28;20615;-18
2022/03/30 10:16:43;;;;;;;12.85;5.60;;;;;;;;;;5055267;28;20230;-17
2022/03/30 10:19:11;;;;;;;11.15;5.50;;;;;;;;;;5058240;28;20230;-17
2022/03/30 10:21:41;;;;;;;9.90;4.95;;;;;;;;;;5054256;28;20234;-17
2022/03/30 10:24:24;;;;;;;15.57;7.30;;;;;;;;;;5055568;28;20237;-17
2022/03/30 10:26:59;;;;;;;11.73;7.53;;;;;;;;;;5043522;28;21071;-17
2022/03/30 10:29:27;;;;;;;17.10;6.30;;;;;;;;;;5050654;28;20419;-17
2022/03/30 10:32:10;;;;;;;14.50;5.70;;;;;;;;;;5051635;28;20234;-17
2022/03/30 10:34:40;;;;;;;11.77;5.43;;;;;;;;;;5057854;28;20238;-17
2022/03/30 10:37:09;;;;;;;12.80;5.25;;;;;;;;;;5061605;28;20241;-17
2022/03/30 10:39:37;;;;;;;13.23;6.20;;;;;;;;;;5050959;28;21479;-16
2022/03/30 10:42:22;;;;;;;13.57;6.60;;;;;;;;;;5050869;28;20238;-17
2022/03/30 10:44:51;;;;;;;10.20;6.00;;;;;;;;;;5051865;28;20236;-17
2022/03/30 10:47:20;;;;;;;16.20;5.93;;;;;;;;;;5051803;28;20371;-17
2022/03/30 10:49:48;;;;;;;13.52;5.55;;;;;;;;;;5051739;28;20231;-17
2022/03/30 10:52:25;;;;;;;13.25;5.05;;;;;;;;;;5051298;28;20230;-17
2022/03/30 10:54:55;;;;;;;9.07;4.75;;;;;;;;;;5051507;28;21065;-17
2022/03/30 10:57:44;;;;;;;10.63;4.57;;;;;;;;;;5055214;28;20990;-17
2022/03/30 11:00:16;;;;;;;10.52;4.90;;;;;;;;;;5047107;28;20411;-17
2022/03/30 11:02:43;;;;;;;6.20;4.32;;;;;;;;;;5047447;28;20742;-17
2022/03/30 11:05:16;;;;;;;10.20;4.43;;;;;;;;;;5048399;28;20226;-17
2022/03/30 11:07:43;;;;;;;9.43;3.88;;;;;;;;;;5047691;28;21018;-17
2022/03/30 11:10:17;;;;;;;11.97;4.57;;;;;;;;;;5060999;28;20415;-17
2022/03/30 11:13:04;;;;;;;6.20;3.63;;;;;;;;;;5048436;28;80315;-17
2022/03/30 11:15:54;;;;;;;8.38;4.15;;;;;;;;;;5055625;28;77457;-17
2022/03/30 11:18:21;;;;;;;9.55;4.28;;;;;;;;;;5073119;28;20433;-17
2022/03/30 11:21:07;;;;;;;13.73;4.55;;;;;;;;;;5071280;28;20413;-17
2022/03/30 11:23:35;;;;;;;13.73;4.90;;;;;;;;;;5069971;28;20242;-17
2022/03/30 11:26:02;;;;;;;8.13;4.13;;;;;;;;;;5071553;28;20236;-17
2022/03/30 11:28:34;;;;;;;14.02;4.05;;;;;;;;;;5071668;28;20304;-17
2022/03/30 11:31:04;;;;;;;14.52;3.95;;;;;;;;;;5071460;28;20230;-18
2022/03/30 11:33:34;;;;;;;14.07;3.67;;;;;;;;;;5071687;28;20237;-17
2022/03/30 11:36:02;;;;;;;14.63;3.72;;;;;;;;;;5070194;28;20274;-17
2022/03/30 11:38:37;;;;;;;10.38;3.65;;;;;;;;;;5070823;28;20234;-18
2022/03/30 11:41:06;;;;;;;4.93;3.15;;;;;;;;;;5071536;28;20229;-18
2022/03/30 11:45:12;;;;;;;6.03;3.05;;;;;;;;;;5071467;28;20234;-17
2022/03/30 11:46:28;;;;;;;6.57;2.75;;;;;;;;;;5067904;28;20243;-17
2022/03/30 11:48:59;;;;;;;7.97;2.80;;;;;;;;;;5070368;28;20236;-17
2022/03/30 11:51:26;;;;;;;8.88;3.00;;;;;;;;;;5071278;28;20222;-17
2022/03/30 11:54:08;;;;;;;5.13;2.67;;;;;;;;;;5071056;28;20222;-17
2022/03/30 11:56:36;;;;;;;3.78;2.60;;;;;;;;;;5069913;28;20226;-17
2022/03/30 11:59:03;;;;;;;5.63;2.50;;;;;;;;;;5070878;28;20236;-17
2022/03/30 12:01:33;;;;;;;8.15;2.35;;;;;;;;;;5070957;28;20249;-17
2022/03/30 12:04:00;;;;;;;7.05;2.20;;;;;;;;;;5071084;28;20612;-17
2022/03/30 12:06:28;;;;;;;4.90;2.40;;;;;;;;;;5070863;28;20699;-17
2022/03/30 12:08:56;;;;;;;6.53;2.30;;;;;;;;;;5070345;28;20256;-17
2022/03/30 12:11:23;;;;;;;4.32;1.73;;;;;;;;;;5070823;28;20240;-17
2022/03/30 12:13:52;;;;;;;3.58;2.17;;;;;;;;;;5070406;28;20230;-17
2022/03/30 12:16:19;;;;;;;4.07;1.88;;;;;;;;;;5069119;28;20226;-17
2022/03/30 12:18:50;;;;;;;3.38;2.17;;;;;;;;;;5069981;28;20237;-17
2022/03/30 12:21:18;;;;;;;3.90;2.13;;;;;;;;;;5070796;28;20248;-18
2022/03/30 12:23:52;;;;;;;4.35;1.92;;;;;;;;;;5070936;28;20248;-18
2022/03/30 12:26:40;;;;;;;5.78;1.75;;;;;;;;;;5070847;28;21097;-18
2022/03/30 12:29:07;;;;;;;4.38;1.65;;;;;;;;;;5069903;28;20240;-17
2022/03/30 12:31:35;;;;;;;5.25;1.40;;;;;;;;;;5070632;28;20233;-17
2022/03/30 12:34:09;;;;;;;2.20;1.50;;;;;;;;;;5070669;28;20307;-17
2022/03/30 12:36:40;;;;;;;3.42;1.83;;;;;;;;;;5070436;28;20225;-18
2022/03/30 12:39:14;;;;;;;2.00;1.83;;;;;;;;;;5069751;28;20237;-18
2022/03/30 12:41:41;;;;;;;1.60;1.45;;;;;;;;;;5069856;28;20232;-18
2022/03/30 12:44:09;;;;;;;3.35;1.50;;;;;;;;;;5070460;28;20230;-17
2022/03/30 12:46:37;;;;;;;1.88;1.30;;;;;;;;;;5070570;28;20224;-17
2022/03/30 12:49:05;;;;;;;2.58;1.30;;;;;;;;;;5070611;28;20234;-17
2022/03/30 12:51:34;;;;;;;1.52;1.30;;;;;;;;;;5069604;28;20602;-17
2022/03/30 12:54:01;;;;;;;3.50;1.27;;;;;;;;;;5070201;28;20237;-17
2022/03/30 12:56:29;;;;;;;1.67;1.08;;;;;;;;;;5070173;28;20226;-17
2022/03/30 12:59:04;;;;;;;2.00;1.50;;;;;;;;;;5070756;28;20244;-17
2022/03/30 13:01:32;;;;;;;1.48;1.23;;;;;;;;;;5070115;28;20244;-17
2022/03/30 13:03:59;;;;;;;1.48;1.27;;;;;;;;;;5069126;28;20735;-17
2022/03/30 13:06:27;;;;;;;2.30;1.38;;;;;;;;;;5070116;28;21041;-18
2022/03/30 13:09:18;;;;;;;1.50;1.30;;;;;;;;;;5073183;28;20730;-18
2022/03/30 13:11:49;;;;;;;2.10;1.15;;;;;;;;;;5067587;28;20311;-17
2022/03/30 13:14:16;;;;;;;2.70;1.40;;;;;;;;;;5069736;28;20986;-18
2022/03/30 13:16:53;;;;;;;1.73;0.95;;;;;;;;;;5069377;28;20230;-17
2022/03/30 13:19:22;;;;;;;1.50;1.15;;;;;;;;;;5070756;28;20236;-17
2022/03/30 13:21:49;;;;;;;1.88;1.05;;;;;;;;;;5073214;28;20225;-17
2022/03/30 13:24:17;;;;;;;2.67;1.33;;;;;;;;;;5073024;28;20236;-17
2022/03/30 13:26:44;;;;;;;2.47;0.90;;;;;;;;;;5069626;28;20775;-17
2022/03/30 13:29:14;;;;;;;1.10;1.00;;;;;;;;;;5069056;28;20268;-17
2022/03/30 13:31:46;;;;;;;1.67;1.05;;;;;;;;;;5069086;28;20232;-17
2022/03/30 13:34:13;;;;;;;1.75;1.27;;;;;;;;;;5069701;28;20320;-18
2022/03/30 13:36:42;;;;;;;1.80;1.30;;;;;;;;;;5072276;28;20221;-18
2022/03/30 13:39:09;;;;;;;1.00;0.90;;;;;;;;;;5073576;28;20229;-17
2022/03/30 13:41:37;;;;;;;2.10;1.00;;;;;;;;;;5073122;28;20229;-17
2022/03/30 13:44:04;;;;;;;2.10;1.00;;;;;;;;;;5073048;28;20280;-17
2022/03/30 13:46:33;;;;;;;1.40;0.90;;;;;;;;;;5072442;28;20244;-17
2022/03/30 13:49:00;;;;;;;1.15;0.95;;;;;;;;;;5073840;28;20290;-17
2022/03/30 13:51:28;;;;;;;2.08;1.10;;;;;;;;;;5073474;28;20264;-17
2022/03/30 13:53:55;;;;;;;1.60;1.00;;;;;;;;;;5073062;28;20696;-17
2022/03/30 13:56:22;;;;;;;5.55;1.20;;;;;;;;;;5072754;28;20234;-17
2022/03/30 13:58:53;;;;;;;0.95;0.80;;;;;;;;;;5072417;28;21010;-17
2022/03/30 14:01:21;;;;;;;11.18;1.50;;;;;;;;;;5074009;28;20688;-17
2022/03/30 14:03:49;;;;;;;6.93;1.30;;;;;;;;;;5074438;28;20236;-17
2022/03/30 14:06:17;;;;;;;4.05;1.95;;;;;;;;;;5073637;28;20240;-17
2022/03/30 14:08:44;;;;;;;1.45;0.90;;;;;;;;;;5077627;28;20241;-17
2022/03/30 14:11:11;;;;;;;3.35;1.30;;;;;;;;;;5070060;28;20232;-17
2022/03/30 14:13:39;;;;;;;3.78;0.85;;;;;;;;;;5072624;28;21109;-17
2022/03/30 14:16:06;;;;;;;3.47;1.08;;;;;;;;;;5070654;28;20229;-17
2022/03/30 14:18:34;;;;;;;4.80;1.02;;;;;;;;;;5074763;28;20252;-16
2022/03/30 14:21:02;;;;;;;2.95;1.08;;;;;;;;;;5070294;28;20233;-17
2022/03/30 14:23:30;;;;;;;5.55;1.02;;;;;;;;;;5071440;28;20421;-17
2022/03/30 14:25:59;;;;;;;6.35;0.90;;;;;;;;;;5071216;28;20417;-17
2022/03/30 14:28:26;;;;;;;6.18;1.02;;;;;;;;;;5059516;28;20238;-17
2022/03/30 14:30:53;;;;;;;7.75;1.17;;;;;;;;;;5068944;28;20225;-17
2022/03/30 14:33:21;;;;;;;6.97;1.00;;;;;;;;;;5071540;28;20512;-17
2022/03/30 14:35:48;;;;;;;11.37;1.40;;;;;;;;;;5071922;28;20429;-17
2022/03/30 14:38:17;;;;;;;11.90;1.42;;;;;;;;;;5071222;28;20417;-17
2022/03/30 14:40:45;;;;;;;3.40;0.82;;;;;;;;;;5068825;28;20245;-17
2022/03/30 14:43:12;;;;;;;10.43;1.17;;;;;;;;;;5068556;28;20230;-18
2022/03/30 14:45:40;;;;;;;6.43;0.90;;;;;;;;;;5072086;28;20230;-18
2022/03/30 14:48:08;;;;;;;2.60;0.70;;;;;;;;;;5071836;28;21142;-17
2022/03/30 14:50:36;;;;;;;3.10;0.80;;;;;;;;;;5071871;28;20234;-17
2022/03/30 14:53:03;;;;;;;11.52;1.10;;;;;;;;;;5071344;28;20229;-18